sensor_id;sensor_type;location;lat;lon;timestamp;P1;durP1;ratioP1;P2;durP2;ratioP2
13404;SDS011;6773;51.192;7.024;2022-12-29T00:01:13;1.97;;;1.80;;
13404;SDS011;6773;51.192;7.024;2022-12-29T00:03:39;2.00;;;1.90;;
13404;SDS011;6773;51.192;7.024;2022-12-29T00:06:05;2.10;;;2.00;;
13404;SDS011;6773;51.192;7.024;2022-12-29T00:08:30;2.30;;;2.07;;
13404;SDS011;6773;51.192;7.024;2022-12-29T00:11:09;2.77;;;2.13;;
13404;SDS011;6773;51.192;7.024;2022-12-29T00:13:42;2.30;;;2.00;;
13404;SDS011;6773;51.192;7.024;2022-12-29T00:16:27;3.83;;;2.07;;
13404;SDS011;6773;51.192;7.024;2022-12-29T00:18:53;3.27;;;2.20;;
13404;SDS011;6773;51.192;7.024;2022-12-29T00:21:20;3.20;;;1.80;;
13404;SDS011;6773;51.192;7.024;2022-12-29T00:24:06;3.23;;;2.67;;
13404;SDS011;6773;51.192;7.024;2022-12-29T00:26:48;1.97;;;1.77;;
13404;SDS011;6773;51.192;7.024;2022-12-29T00:29:38;2.27;;;1.97;;
13404;SDS011;6773;51.192;7.024;2022-12-29T00:32:22;2.00;;;1.90;;
13404;SDS011;6773;51.192;7.024;2022-12-29T00:35:08;2.20;;;2.00;;
13404;SDS011;6773;51.192;7.024;2022-12-29T00:37:46;2.10;;;1.90;;
13404;SDS011;6773;51.192;7.024;2022-12-29T00:40:31;2.03;;;1.80;;
13404;SDS011;6773;51.192;7.024;2022-12-29T00:43:16;1.90;;;1.80;;
13404;SDS011;6773;51.192;7.024;2022-12-29T00:46:00;1.80;;;1.70;;
13404;SDS011;6773;51.192;7.024;2022-12-29T00:48:26;1.67;;;1.57;;
13404;SDS011;6773;51.192;7.024;2022-12-29T00:51:10;1.50;;;1.40;;
13404;SDS011;6773;51.192;7.024;2022-12-29T00:53:35;1.60;;;1.50;;
13404;SDS011;6773;51.192;7.024;2022-12-29T00:56:01;2.07;;;1.60;;
13404;SDS011;6773;51.192;7.024;2022-12-29T00:58:27;1.70;;;1.60;;
13404;SDS011;6773;51.192;7.024;2022-12-29T01:01:03;1.63;;;1.53;;
13404;SDS011;6773;51.192;7.024;2022-12-29T01:03:32;1.60;;;1.50;;
13404;SDS011;6773;51.192;7.024;2022-12-29T01:06:02;1.60;;;1.50;;
13404;SDS011;6773;51.192;7.024;2022-12-29T01:08:28;1.87;;;1.50;;
13404;SDS011;6773;51.192;7.024;2022-12-29T01:11:05;1.40;;;1.30;;
13404;SDS011;6773;51.192;7.024;2022-12-29T01:13:35;1.50;;;1.40;;
13404;SDS011;6773;51.192;7.024;2022-12-29T01:16:03;2.13;;;1.30;;
13404;SDS011;6773;51.192;7.024;2022-12-29T01:18:29;1.50;;;1.40;;
13404;SDS011;6773;51.192;7.024;2022-12-29T01:20:58;1.33;;;1.33;;
13404;SDS011;6773;51.192;7.024;2022-12-29T01:23:25;1.13;;;1.13;;
13404;SDS011;6773;51.192;7.024;2022-12-29T01:25:50;1.00;;;1.00;;
13404;SDS011;6773;51.192;7.024;2022-12-29T01:28:16;1.40;;;1.30;;
13404;SDS011;6773;51.192;7.024;2022-12-29T01:30:41;1.33;;;1.23;;
13404;SDS011;6773;51.192;7.024;2022-12-29T01:33:07;1.50;;;1.40;;
13404;SDS011;6773;51.192;7.024;2022-12-29T01:35:32;1.57;;;1.40;;
13404;SDS011;6773;51.192;7.024;2022-12-29T01:37:58;1.20;;;1.20;;
13404;SDS011;6773;51.192;7.024;2022-12-29T01:40:24;1.50;;;1.40;;
13404;SDS011;6773;51.192;7.024;2022-12-29T01:42:50;1.40;;;1.30;;
13404;SDS011;6773;51.192;7.024;2022-12-29T01:45:16;1.50;;;1.40;;
13404;SDS011;6773;51.192;7.024;2022-12-29T01:47:47;1.70;;;1.60;;
13404;SDS011;6773;51.192;7.024;2022-12-29T01:50:24;1.53;;;1.43;;
13404;SDS011;6773;51.192;7.024;2022-12-29T01:52:57;1.40;;;1.30;;
13404;SDS011;6773;51.192;7.024;2022-12-29T01:55:31;1.67;;;1.57;;
13404;SDS011;6773;51.192;7.024;2022-12-29T01:58:01;1.40;;;1.30;;
13404;SDS011;6773;51.192;7.024;2022-12-29T02:00:29;1.10;;;1.10;;
13404;SDS011;6773;51.192;7.024;2022-12-29T02:02:55;1.17;;;1.17;;
13404;SDS011;6773;51.192;7.024;2022-12-29T02:07:50;1.10;;;1.10;;
13404;SDS011;6773;51.192;7.024;2022-12-29T02:10:19;1.10;;;1.10;;
13404;SDS011;6773;51.192;7.024;2022-12-29T02:12:45;1.13;;;1.13;;
13404;SDS011;6773;51.192;7.024;2022-12-29T02:15:12;1.20;;;1.20;;
13404;SDS011;6773;51.192;7.024;2022-12-29T02:30:52;1.00;;;1.00;;
13404;SDS011;6773;51.192;7.024;2022-12-29T02:36:26;1.00;;;1.00;;
13404;SDS011;6773;51.192;7.024;2022-12-29T02:44:22;1.10;;;1.00;;
13404;SDS011;6773;51.192;7.024;2022-12-29T02:47:05;1.00;;;1.00;;
13404;SDS011;6773;51.192;7.024;2022-12-29T02:52:39;1.30;;;1.20;;
13404;SDS011;6773;51.192;7.024;2022-12-29T02:55:10;1.30;;;1.20;;
13404;SDS011;6773;51.192;7.024;2022-12-29T02:57:36;1.80;;;1.00;;
13404;SDS011;6773;51.192;7.024;2022-12-29T03:05:22;1.00;;;1.00;;
13404;SDS011;6773;51.192;7.024;2022-12-29T03:18:52;1.47;;;1.20;;
13404;SDS011;6773;51.192;7.024;2022-12-29T03:21:43;1.67;;;1.10;;
13404;SDS011;6773;51.192;7.024;2022-12-29T03:24:30;1.47;;;1.20;;
13404;SDS011;6773;51.192;7.024;2022-12-29T03:26:59;1.70;;;1.20;;
13404;SDS011;6773;51.192;7.024;2022-12-29T03:29:29;2.23;;;1.20;;
13404;SDS011;6773;51.192;7.024;2022-12-29T03:31:59;1.23;;;1.10;;
13404;SDS011;6773;51.192;7.024;2022-12-29T03:34:28;1.20;;;1.10;;
13404;SDS011;6773;51.192;7.024;2022-12-29T03:37:00;1.30;;;1.20;;
13404;SDS011;6773;51.192;7.024;2022-12-29T03:39:31;1.30;;;1.20;;
13404;SDS011;6773;51.192;7.024;2022-12-29T03:42:04;1.40;;;1.30;;
13404;SDS011;6773;51.192;7.024;2022-12-29T03:44:39;1.90;;;1.17;;
13404;SDS011;6773;51.192;7.024;2022-12-29T03:47:07;1.00;;;1.00;;
13404;SDS011;6773;51.192;7.024;2022-12-29T03:49:33;1.33;;;1.17;;
13404;SDS011;6773;51.192;7.024;2022-12-29T03:51:59;1.00;;;1.00;;
13404;SDS011;6773;51.192;7.024;2022-12-29T03:54:24;1.13;;;1.10;;
13404;SDS011;6773;51.192;7.024;2022-12-29T03:56:50;1.07;;;1.07;;
13404;SDS011;6773;51.192;7.024;2022-12-29T03:59:16;1.00;;;1.00;;
13404;SDS011;6773;51.192;7.024;2022-12-29T04:01:42;1.10;;;1.00;;
13404;SDS011;6773;51.192;7.024;2022-12-29T04:04:08;1.03;;;1.03;;
13404;SDS011;6773;51.192;7.024;2022-12-29T04:06:34;1.10;;;1.10;;
13404;SDS011;6773;51.192;7.024;2022-12-29T04:08:59;1.77;;;1.20;;
13404;SDS011;6773;51.192;7.024;2022-12-29T04:11:25;1.10;;;1.00;;
13404;SDS011;6773;51.192;7.024;2022-12-29T04:13:51;2.10;;;1.27;;
13404;SDS011;6773;51.192;7.024;2022-12-29T04:16:17;1.00;;;1.00;;
13404;SDS011;6773;51.192;7.024;2022-12-29T04:18:42;1.00;;;1.00;;
13404;SDS011;6773;51.192;7.024;2022-12-29T04:21:08;1.00;;;1.00;;
13404;SDS011;6773;51.192;7.024;2022-12-29T04:23:35;1.80;;;1.03;;
13404;SDS011;6773;51.192;7.024;2022-12-29T04:26:02;1.20;;;1.10;;
13404;SDS011;6773;51.192;7.024;2022-12-29T04:28:28;1.10;;;1.10;;
13404;SDS011;6773;51.192;7.024;2022-12-29T04:30:55;1.90;;;1.13;;
13404;SDS011;6773;51.192;7.024;2022-12-29T04:33:21;1.03;;;1.03;;
13404;SDS011;6773;51.192;7.024;2022-12-29T04:35:47;1.27;;;1.10;;
13404;SDS011;6773;51.192;7.024;2022-12-29T04:38:13;1.53;;;1.03;;
13404;SDS011;6773;51.192;7.024;2022-12-29T04:40:39;1.80;;;1.03;;
13404;SDS011;6773;51.192;7.024;2022-12-29T04:43:06;1.20;;;1.10;;
13404;SDS011;6773;51.192;7.024;2022-12-29T04:45:32;1.53;;;1.30;;
13404;SDS011;6773;51.192;7.024;2022-12-29T04:47:57;1.20;;;1.10;;
13404;SDS011;6773;51.192;7.024;2022-12-29T04:50:23;0.90;;;0.90;;
13404;SDS011;6773;51.192;7.024;2022-12-29T04:52:49;1.03;;;0.97;;
13404;SDS011;6773;51.192;7.024;2022-12-29T04:55:15;1.20;;;1.10;;
13404;SDS011;6773;51.192;7.024;2022-12-29T04:57:40;1.23;;;1.10;;
13404;SDS011;6773;51.192;7.024;2022-12-29T05:00:06;1.23;;;1.07;;
13404;SDS011;6773;51.192;7.024;2022-12-29T05:02:34;1.13;;;1.13;;
13404;SDS011;6773;51.192;7.024;2022-12-29T05:05:00;1.40;;;1.30;;
13404;SDS011;6773;51.192;7.024;2022-12-29T05:07:25;1.20;;;1.00;;
13404;SDS011;6773;51.192;7.024;2022-12-29T05:09:51;1.40;;;1.00;;
13404;SDS011;6773;51.192;7.024;2022-12-29T05:12:17;1.20;;;1.10;;
13404;SDS011;6773;51.192;7.024;2022-12-29T05:14:43;1.10;;;1.10;;
13404;SDS011;6773;51.192;7.024;2022-12-29T05:17:08;1.10;;;1.00;;
13404;SDS011;6773;51.192;7.024;2022-12-29T05:19:34;2.37;;;1.10;;
13404;SDS011;6773;51.192;7.024;2022-12-29T05:22:00;1.30;;;1.20;;
13404;SDS011;6773;51.192;7.024;2022-12-29T05:24:25;1.23;;;1.10;;
13404;SDS011;6773;51.192;7.024;2022-12-29T05:26:51;1.23;;;1.10;;
13404;SDS011;6773;51.192;7.024;2022-12-29T05:29:16;1.00;;;1.00;;
13404;SDS011;6773;51.192;7.024;2022-12-29T05:31:42;1.13;;;1.03;;
13404;SDS011;6773;51.192;7.024;2022-12-29T05:34:10;1.43;;;1.23;;
13404;SDS011;6773;51.192;7.024;2022-12-29T05:36:36;1.10;;;1.00;;
13404;SDS011;6773;51.192;7.024;2022-12-29T05:39:02;1.20;;;1.10;;
13404;SDS011;6773;51.192;7.024;2022-12-29T05:41:28;1.63;;;1.20;;
13404;SDS011;6773;51.192;7.024;2022-12-29T05:43:54;1.70;;;1.40;;
13404;SDS011;6773;51.192;7.024;2022-12-29T05:46:19;1.10;;;1.00;;
13404;SDS011;6773;51.192;7.024;2022-12-29T05:48:45;2.03;;;1.10;;
13404;SDS011;6773;51.192;7.024;2022-12-29T05:51:12;1.63;;;1.17;;
13404;SDS011;6773;51.192;7.024;2022-12-29T05:53:37;1.50;;;1.27;;
13404;SDS011;6773;51.192;7.024;2022-12-29T05:56:03;1.20;;;1.20;;
13404;SDS011;6773;51.192;7.024;2022-12-29T05:58:29;1.73;;;1.10;;
13404;SDS011;6773;51.192;7.024;2022-12-29T06:00:55;1.93;;;1.30;;
13404;SDS011;6773;51.192;7.024;2022-12-29T06:03:21;1.87;;;1.20;;
13404;SDS011;6773;51.192;7.024;2022-12-29T06:05:46;2.10;;;1.20;;
13404;SDS011;6773;51.192;7.024;2022-12-29T06:08:12;1.57;;;1.10;;
13404;SDS011;6773;51.192;7.024;2022-12-29T06:10:37;1.27;;;1.17;;
13404;SDS011;6773;51.192;7.024;2022-12-29T06:13:03;1.57;;;1.17;;
13404;SDS011;6773;51.192;7.024;2022-12-29T06:15:30;1.00;;;1.00;;
13404;SDS011;6773;51.192;7.024;2022-12-29T06:17:59;4.87;;;1.60;;
13404;SDS011;6773;51.192;7.024;2022-12-29T06:20:25;2.47;;;1.20;;
13404;SDS011;6773;51.192;7.024;2022-12-29T06:22:50;1.90;;;1.00;;
13404;SDS011;6773;51.192;7.024;2022-12-29T06:25:16;2.47;;;1.20;;
13404;SDS011;6773;51.192;7.024;2022-12-29T06:27:42;1.80;;;1.33;;
13404;SDS011;6773;51.192;7.024;2022-12-29T06:30:08;1.63;;;1.10;;
13404;SDS011;6773;51.192;7.024;2022-12-29T06:32:35;1.57;;;0.90;;
13404;SDS011;6773;51.192;7.024;2022-12-29T06:35:01;1.10;;;1.10;;
13404;SDS011;6773;51.192;7.024;2022-12-29T06:37:27;2.07;;;1.20;;
13404;SDS011;6773;51.192;7.024;2022-12-29T06:39:53;2.43;;;1.30;;
13404;SDS011;6773;51.192;7.024;2022-12-29T06:42:19;1.53;;;1.30;;
13404;SDS011;6773;51.192;7.024;2022-12-29T06:44:45;1.10;;;1.00;;
13404;SDS011;6773;51.192;7.024;2022-12-29T06:47:11;2.17;;;1.10;;
13404;SDS011;6773;51.192;7.024;2022-12-29T06:49:36;2.80;;;1.20;;
13404;SDS011;6773;51.192;7.024;2022-12-29T06:52:02;1.97;;;1.30;;
13404;SDS011;6773;51.192;7.024;2022-12-29T06:54:29;1.10;;;1.10;;
13404;SDS011;6773;51.192;7.024;2022-12-29T06:56:55;1.87;;;1.20;;
13404;SDS011;6773;51.192;7.024;2022-12-29T06:59:22;3.57;;;1.10;;
13404;SDS011;6773;51.192;7.024;2022-12-29T07:01:47;1.00;;;1.00;;
13404;SDS011;6773;51.192;7.024;2022-12-29T07:04:13;3.47;;;1.43;;
13404;SDS011;6773;51.192;7.024;2022-12-29T07:06:39;2.07;;;1.23;;
13404;SDS011;6773;51.192;7.024;2022-12-29T07:09:05;4.17;;;1.40;;
13404;SDS011;6773;51.192;7.024;2022-12-29T07:11:32;1.73;;;1.10;;
13404;SDS011;6773;51.192;7.024;2022-12-29T07:13:58;1.50;;;1.40;;
13404;SDS011;6773;51.192;7.024;2022-12-29T07:16:24;2.17;;;1.00;;
13404;SDS011;6773;51.192;7.024;2022-12-29T07:18:50;2.93;;;1.30;;
13404;SDS011;6773;51.192;7.024;2022-12-29T07:21:16;1.90;;;1.10;;
13404;SDS011;6773;51.192;7.024;2022-12-29T07:23:42;1.40;;;1.23;;
13404;SDS011;6773;51.192;7.024;2022-12-29T07:26:09;5.00;;;1.20;;
13404;SDS011;6773;51.192;7.024;2022-12-29T07:28:37;2.20;;;1.33;;
13404;SDS011;6773;51.192;7.024;2022-12-29T07:31:04;2.33;;;1.27;;
13404;SDS011;6773;51.192;7.024;2022-12-29T07:33:31;1.73;;;1.30;;
13404;SDS011;6773;51.192;7.024;2022-12-29T07:35:57;4.20;;;1.20;;
13404;SDS011;6773;51.192;7.024;2022-12-29T07:38:23;2.33;;;1.30;;
13404;SDS011;6773;51.192;7.024;2022-12-29T07:40:49;1.97;;;1.30;;
13404;SDS011;6773;51.192;7.024;2022-12-29T07:43:15;2.13;;;1.30;;
13404;SDS011;6773;51.192;7.024;2022-12-29T07:45:40;3.23;;;1.30;;
13404;SDS011;6773;51.192;7.024;2022-12-29T07:48:06;2.60;;;1.50;;
13404;SDS011;6773;51.192;7.024;2022-12-29T07:50:33;1.93;;;1.27;;
13404;SDS011;6773;51.192;7.024;2022-12-29T07:52:59;3.43;;;1.43;;
13404;SDS011;6773;51.192;7.024;2022-12-29T07:55:25;1.70;;;1.20;;
13404;SDS011;6773;51.192;7.024;2022-12-29T07:57:52;4.40;;;1.40;;
13404;SDS011;6773;51.192;7.024;2022-12-29T08:00:19;1.37;;;1.20;;
13404;SDS011;6773;51.192;7.024;2022-12-29T08:02:44;2.37;;;1.30;;
13404;SDS011;6773;51.192;7.024;2022-12-29T08:05:10;3.73;;;1.50;;
13404;SDS011;6773;51.192;7.024;2022-12-29T08:07:36;1.23;;;1.13;;
13404;SDS011;6773;51.192;7.024;2022-12-29T08:10:02;2.97;;;1.47;;
13404;SDS011;6773;51.192;7.024;2022-12-29T08:12:27;3.33;;;1.27;;
13404;SDS011;6773;51.192;7.024;2022-12-29T08:14:53;1.07;;;1.07;;
13404;SDS011;6773;51.192;7.024;2022-12-29T08:17:19;1.83;;;1.30;;
13404;SDS011;6773;51.192;7.024;2022-12-29T08:19:45;3.10;;;1.27;;
13404;SDS011;6773;51.192;7.024;2022-12-29T08:22:10;4.87;;;1.50;;
13404;SDS011;6773;51.192;7.024;2022-12-29T08:24:37;2.30;;;1.67;;
13404;SDS011;6773;51.192;7.024;2022-12-29T08:27:03;2.23;;;1.40;;
13404;SDS011;6773;51.192;7.024;2022-12-29T08:29:28;1.93;;;1.33;;
13404;SDS011;6773;51.192;7.024;2022-12-29T08:31:54;3.20;;;1.47;;
13404;SDS011;6773;51.192;7.024;2022-12-29T08:34:20;2.70;;;1.30;;
13404;SDS011;6773;51.192;7.024;2022-12-29T08:36:45;2.43;;;1.30;;
13404;SDS011;6773;51.192;7.024;2022-12-29T08:39:11;1.87;;;1.23;;
13404;SDS011;6773;51.192;7.024;2022-12-29T08:41:37;2.47;;;1.30;;
13404;SDS011;6773;51.192;7.024;2022-12-29T08:44:03;1.33;;;1.20;;
13404;SDS011;6773;51.192;7.024;2022-12-29T08:46:29;5.27;;;1.73;;
13404;SDS011;6773;51.192;7.024;2022-12-29T08:48:55;2.03;;;1.30;;
13404;SDS011;6773;51.192;7.024;2022-12-29T08:51:21;5.57;;;1.60;;
13404;SDS011;6773;51.192;7.024;2022-12-29T08:53:46;3.77;;;1.60;;
13404;SDS011;6773;51.192;7.024;2022-12-29T08:56:12;5.10;;;1.70;;
13404;SDS011;6773;51.192;7.024;2022-12-29T08:58:37;1.60;;;1.50;;
13404;SDS011;6773;51.192;7.024;2022-12-29T09:01:03;7.47;;;2.00;;
13404;SDS011;6773;51.192;7.024;2022-12-29T09:03:29;4.07;;;1.53;;
13404;SDS011;6773;51.192;7.024;2022-12-29T09:05:55;1.80;;;1.37;;
13404;SDS011;6773;51.192;7.024;2022-12-29T09:08:21;3.20;;;1.70;;
13404;SDS011;6773;51.192;7.024;2022-12-29T09:10:46;4.03;;;1.97;;
13404;SDS011;6773;51.192;7.024;2022-12-29T09:13:13;7.10;;;1.53;;
13404;SDS011;6773;51.192;7.024;2022-12-29T09:15:39;5.10;;;1.50;;
13404;SDS011;6773;51.192;7.024;2022-12-29T09:18:05;3.23;;;1.60;;
13404;SDS011;6773;51.192;7.024;2022-12-29T09:20:32;4.07;;;1.40;;
13404;SDS011;6773;51.192;7.024;2022-12-29T09:22:58;3.87;;;1.50;;
13404;SDS011;6773;51.192;7.024;2022-12-29T09:25:24;1.70;;;1.20;;
13404;SDS011;6773;51.192;7.024;2022-12-29T09:27:50;4.53;;;1.47;;
13404;SDS011;6773;51.192;7.024;2022-12-29T09:30:20;4.27;;;1.57;;
13404;SDS011;6773;51.192;7.024;2022-12-29T09:32:47;4.13;;;1.57;;
13404;SDS011;6773;51.192;7.024;2022-12-29T09:35:14;4.17;;;1.70;;
13404;SDS011;6773;51.192;7.024;2022-12-29T09:37:40;3.70;;;1.30;;
13404;SDS011;6773;51.192;7.024;2022-12-29T09:40:06;3.33;;;1.37;;
13404;SDS011;6773;51.192;7.024;2022-12-29T09:42:58;2.37;;;1.37;;
13404;SDS011;6773;51.192;7.024;2022-12-29T09:45:54;3.63;;;1.70;;
13404;SDS011;6773;51.192;7.024;2022-12-29T09:48:27;4.73;;;1.60;;
13404;SDS011;6773;51.192;7.024;2022-12-29T09:50:57;4.70;;;1.70;;
13404;SDS011;6773;51.192;7.024;2022-12-29T09:53:29;3.27;;;1.60;;
13404;SDS011;6773;51.192;7.024;2022-12-29T09:56:01;5.20;;;1.40;;
13404;SDS011;6773;51.192;7.024;2022-12-29T09:58:30;3.87;;;1.40;;
13404;SDS011;6773;51.192;7.024;2022-12-29T10:01:07;5.43;;;2.00;;
13404;SDS011;6773;51.192;7.024;2022-12-29T10:06:17;3.37;;;1.40;;
13404;SDS011;6773;51.192;7.024;2022-12-29T10:14:33;2.67;;;1.50;;
13404;SDS011;6773;51.192;7.024;2022-12-29T10:19:57;7.40;;;1.90;;
13404;SDS011;6773;51.192;7.024;2022-12-29T10:25:49;2.20;;;1.50;;
13404;SDS011;6773;51.192;7.024;2022-12-29T10:28:22;3.07;;;1.70;;
13404;SDS011;6773;51.192;7.024;2022-12-29T10:30:55;4.80;;;2.03;;
13404;SDS011;6773;51.192;7.024;2022-12-29T10:33:26;3.20;;;1.40;;
13404;SDS011;6773;51.192;7.024;2022-12-29T10:41:24;4.37;;;1.60;;
13404;SDS011;6773;51.192;7.024;2022-12-29T10:43:54;1.50;;;1.40;;
13404;SDS011;6773;51.192;7.024;2022-12-29T10:46:27;4.73;;;2.00;;
13404;SDS011;6773;51.192;7.024;2022-12-29T10:48:55;3.50;;;1.30;;
13404;SDS011;6773;51.192;7.024;2022-12-29T10:51:24;6.00;;;1.83;;
13404;SDS011;6773;51.192;7.024;2022-12-29T10:56:47;9.77;;;2.20;;
13404;SDS011;6773;51.192;7.024;2022-12-29T10:59:30;4.17;;;1.70;;
13404;SDS011;6773;51.192;7.024;2022-12-29T11:07:27;7.20;;;1.70;;
13404;SDS011;6773;51.192;7.024;2022-12-29T11:09:55;4.90;;;1.77;;
13404;SDS011;6773;51.192;7.024;2022-12-29T11:12:40;4.67;;;1.50;;
13404;SDS011;6773;51.192;7.024;2022-12-29T11:17:42;2.87;;;2.33;;
13404;SDS011;6773;51.192;7.024;2022-12-29T11:23:00;5.23;;;1.70;;
13404;SDS011;6773;51.192;7.024;2022-12-29T11:25:28;4.67;;;1.73;;
13404;SDS011;6773;51.192;7.024;2022-12-29T11:27:55;1.83;;;1.30;;
13404;SDS011;6773;51.192;7.024;2022-12-29T11:30:26;2.87;;;1.53;;
13404;SDS011;6773;51.192;7.024;2022-12-29T11:32:54;3.77;;;1.63;;
13404;SDS011;6773;51.192;7.024;2022-12-29T11:35:34;5.60;;;1.63;;
13404;SDS011;6773;51.192;7.024;2022-12-29T11:38:03;1.90;;;1.37;;
13404;SDS011;6773;51.192;7.024;2022-12-29T11:40:30;2.00;;;1.40;;
13404;SDS011;6773;51.192;7.024;2022-12-29T11:43:02;3.17;;;1.87;;
13404;SDS011;6773;51.192;7.024;2022-12-29T11:45:31;4.50;;;1.80;;
13404;SDS011;6773;51.192;7.024;2022-12-29T11:48:06;7.23;;;1.90;;
13404;SDS011;6773;51.192;7.024;2022-12-29T11:50:36;7.53;;;1.77;;
13404;SDS011;6773;51.192;7.024;2022-12-29T11:56:06;1.60;;;1.37;;
13404;SDS011;6773;51.192;7.024;2022-12-29T11:58:36;9.00;;;1.70;;
13404;SDS011;6773;51.192;7.024;2022-12-29T12:01:07;3.07;;;1.30;;
13404;SDS011;6773;51.192;7.024;2022-12-29T12:04:16;3.87;;;1.60;;
13404;SDS011;6773;51.192;7.024;2022-12-29T12:06:47;3.83;;;1.40;;
13404;SDS011;6773;51.192;7.024;2022-12-29T12:09:25;4.63;;;1.37;;
13404;SDS011;6773;51.192;7.024;2022-12-29T12:11:57;4.80;;;1.50;;
13404;SDS011;6773;51.192;7.024;2022-12-29T12:14:32;2.83;;;1.70;;
13404;SDS011;6773;51.192;7.024;2022-12-29T12:17:08;5.57;;;1.80;;
13404;SDS011;6773;51.192;7.024;2022-12-29T12:19:42;3.13;;;1.80;;
13404;SDS011;6773;51.192;7.024;2022-12-29T12:22:16;1.90;;;1.23;;
13404;SDS011;6773;51.192;7.024;2022-12-29T12:27:48;3.10;;;1.50;;
13404;SDS011;6773;51.192;7.024;2022-12-29T12:30:23;3.53;;;1.30;;
13404;SDS011;6773;51.192;7.024;2022-12-29T12:35:44;5.00;;;1.47;;
13404;SDS011;6773;51.192;7.024;2022-12-29T12:38:33;3.07;;;1.40;;
13404;SDS011;6773;51.192;7.024;2022-12-29T12:41:08;5.67;;;1.67;;
13404;SDS011;6773;51.192;7.024;2022-12-29T12:51:56;6.63;;;1.47;;
13404;SDS011;6773;51.192;7.024;2022-12-29T13:08:05;3.37;;;1.90;;
13404;SDS011;6773;51.192;7.024;2022-12-29T13:10:56;4.27;;;2.20;;
13404;SDS011;6773;51.192;7.024;2022-12-29T13:38:17;6.43;;;1.60;;
13404;SDS011;6773;51.192;7.024;2022-12-29T13:40:49;3.67;;;1.50;;
13404;SDS011;6773;51.192;7.024;2022-12-29T13:43:17;3.00;;;1.40;;
13404;SDS011;6773;51.192;7.024;2022-12-29T13:45:45;4.13;;;1.67;;
13404;SDS011;6773;51.192;7.024;2022-12-29T13:48:17;1.97;;;1.60;;
13404;SDS011;6773;51.192;7.024;2022-12-29T13:50:52;2.13;;;1.20;;
13404;SDS011;6773;51.192;7.024;2022-12-29T13:53:33;1.73;;;1.30;;
13404;SDS011;6773;51.192;7.024;2022-12-29T13:59:10;3.90;;;1.40;;
13404;SDS011;6773;51.192;7.024;2022-12-29T14:01:56;4.93;;;1.70;;
13404;SDS011;6773;51.192;7.024;2022-12-29T14:04:27;2.73;;;1.33;;
13404;SDS011;6773;51.192;7.024;2022-12-29T14:07:01;1.27;;;1.20;;
13404;SDS011;6773;51.192;7.024;2022-12-29T14:12:22;2.70;;;1.40;;
13404;SDS011;6773;51.192;7.024;2022-12-29T14:15:05;1.73;;;1.30;;
13404;SDS011;6773;51.192;7.024;2022-12-29T14:17:34;2.87;;;1.40;;
13404;SDS011;6773;51.192;7.024;2022-12-29T14:20:01;3.83;;;1.70;;
13404;SDS011;6773;51.192;7.024;2022-12-29T14:22:28;2.43;;;1.40;;
13404;SDS011;6773;51.192;7.024;2022-12-29T14:24:54;2.80;;;1.70;;
13404;SDS011;6773;51.192;7.024;2022-12-29T14:29:46;5.37;;;2.20;;
13404;SDS011;6773;51.192;7.024;2022-12-29T14:34:56;1.77;;;1.20;;
13404;SDS011;6773;51.192;7.024;2022-12-29T14:37:33;4.80;;;1.60;;
13404;SDS011;6773;51.192;7.024;2022-12-29T14:42:54;3.80;;;1.60;;
13404;SDS011;6773;51.192;7.024;2022-12-29T14:47:58;1.73;;;1.27;;
13404;SDS011;6773;51.192;7.024;2022-12-29T14:50:36;1.43;;;1.30;;
13404;SDS011;6773;51.192;7.024;2022-12-29T14:53:06;2.60;;;1.73;;
13404;SDS011;6773;51.192;7.024;2022-12-29T14:55:55;3.93;;;1.73;;
13404;SDS011;6773;51.192;7.024;2022-12-29T14:58:27;3.03;;;1.73;;
13404;SDS011;6773;51.192;7.024;2022-12-29T15:03:49;2.00;;;1.40;;
13404;SDS011;6773;51.192;7.024;2022-12-29T15:06:18;5.43;;;1.63;;
13404;SDS011;6773;51.192;7.024;2022-12-29T15:12:11;2.17;;;1.50;;
13404;SDS011;6773;51.192;7.024;2022-12-29T15:16:54;5.23;;;1.77;;
13404;SDS011;6773;51.192;7.024;2022-12-29T15:19:24;3.07;;;1.53;;
13404;SDS011;6773;51.192;7.024;2022-12-29T15:21:52;3.33;;;1.63;;
13404;SDS011;6773;51.192;7.024;2022-12-29T15:24:21;4.63;;;1.70;;
13404;SDS011;6773;51.192;7.024;2022-12-29T15:26:51;4.60;;;1.50;;
13404;SDS011;6773;51.192;7.024;2022-12-29T15:29:38;3.13;;;1.57;;
13404;SDS011;6773;51.192;7.024;2022-12-29T15:34:50;2.20;;;1.30;;
13404;SDS011;6773;51.192;7.024;2022-12-29T15:37:18;3.33;;;1.50;;
13404;SDS011;6773;51.192;7.024;2022-12-29T15:39:46;5.27;;;1.57;;
13404;SDS011;6773;51.192;7.024;2022-12-29T15:42:39;4.27;;;1.40;;
13404;SDS011;6773;51.192;7.024;2022-12-29T15:45:15;2.63;;;1.70;;
13404;SDS011;6773;51.192;7.024;2022-12-29T15:47:42;3.17;;;1.60;;
13404;SDS011;6773;51.192;7.024;2022-12-29T15:50:26;5.80;;;1.77;;
13404;SDS011;6773;51.192;7.024;2022-12-29T15:52:53;2.00;;;1.43;;
13404;SDS011;6773;51.192;7.024;2022-12-29T15:55:21;5.50;;;1.87;;
13404;SDS011;6773;51.192;7.024;2022-12-29T15:57:57;2.07;;;1.53;;
13404;SDS011;6773;51.192;7.024;2022-12-29T16:00:28;4.70;;;1.60;;
13404;SDS011;6773;51.192;7.024;2022-12-29T16:03:04;4.50;;;1.90;;
13404;SDS011;6773;51.192;7.024;2022-12-29T16:05:34;2.67;;;1.47;;
13404;SDS011;6773;51.192;7.024;2022-12-29T16:08:02;6.53;;;2.00;;
13404;SDS011;6773;51.192;7.024;2022-12-29T16:10:38;4.53;;;1.60;;
13404;SDS011;6773;51.192;7.024;2022-12-29T16:13:16;6.03;;;1.93;;
13404;SDS011;6773;51.192;7.024;2022-12-29T16:15:49;5.37;;;1.80;;
13404;SDS011;6773;51.192;7.024;2022-12-29T16:18:25;6.37;;;1.63;;
13404;SDS011;6773;51.192;7.024;2022-12-29T16:20:53;5.80;;;1.97;;
13404;SDS011;6773;51.192;7.024;2022-12-29T16:23:25;4.53;;;2.00;;
13404;SDS011;6773;51.192;7.024;2022-12-29T16:25:53;6.63;;;1.77;;
13404;SDS011;6773;51.192;7.024;2022-12-29T16:28:23;7.73;;;1.87;;
13404;SDS011;6773;51.192;7.024;2022-12-29T16:31:02;5.30;;;1.80;;
13404;SDS011;6773;51.192;7.024;2022-12-29T16:33:39;4.30;;;1.80;;
13404;SDS011;6773;51.192;7.024;2022-12-29T16:41:51;4.73;;;1.63;;
13404;SDS011;6773;51.192;7.024;2022-12-29T16:44:22;6.93;;;1.90;;
13404;SDS011;6773;51.192;7.024;2022-12-29T16:46:57;5.90;;;2.03;;
13404;SDS011;6773;51.192;7.024;2022-12-29T16:49:47;4.93;;;2.07;;
13404;SDS011;6773;51.192;7.024;2022-12-29T16:52:18;6.23;;;2.07;;
13404;SDS011;6773;51.192;7.024;2022-12-29T16:54:48;5.47;;;1.90;;
13404;SDS011;6773;51.192;7.024;2022-12-29T16:57:28;4.67;;;1.87;;
13404;SDS011;6773;51.192;7.024;2022-12-29T16:59:57;4.90;;;2.00;;
13404;SDS011;6773;51.192;7.024;2022-12-29T17:02:26;4.30;;;2.03;;
13404;SDS011;6773;51.192;7.024;2022-12-29T17:04:54;5.63;;;2.00;;
13404;SDS011;6773;51.192;7.024;2022-12-29T17:07:21;6.03;;;1.97;;
13404;SDS011;6773;51.192;7.024;2022-12-29T17:09:48;9.87;;;2.50;;
13404;SDS011;6773;51.192;7.024;2022-12-29T17:12:19;5.27;;;2.33;;
13404;SDS011;6773;51.192;7.024;2022-12-29T17:14:54;5.97;;;1.97;;
13404;SDS011;6773;51.192;7.024;2022-12-29T17:20:15;5.67;;;2.13;;
13404;SDS011;6773;51.192;7.024;2022-12-29T17:22:41;7.07;;;2.33;;
13404;SDS011;6773;51.192;7.024;2022-12-29T17:25:10;5.60;;;1.90;;
13404;SDS011;6773;51.192;7.024;2022-12-29T17:27:38;5.63;;;2.13;;
13404;SDS011;6773;51.192;7.024;2022-12-29T17:32:48;6.10;;;1.87;;
13404;SDS011;6773;51.192;7.024;2022-12-29T17:35:24;6.20;;;2.00;;
13404;SDS011;6773;51.192;7.024;2022-12-29T17:37:51;6.20;;;2.43;;
13404;SDS011;6773;51.192;7.024;2022-12-29T17:40:24;9.13;;;4.00;;
13404;SDS011;6773;51.192;7.024;2022-12-29T17:42:54;6.20;;;2.40;;
13404;SDS011;6773;51.192;7.024;2022-12-29T17:45:22;5.57;;;2.27;;
13404;SDS011;6773;51.192;7.024;2022-12-29T17:47:53;8.87;;;2.40;;
13404;SDS011;6773;51.192;7.024;2022-12-29T17:50:20;6.70;;;3.00;;
13404;SDS011;6773;51.192;7.024;2022-12-29T17:52:51;8.90;;;2.80;;
13404;SDS011;6773;51.192;7.024;2022-12-29T17:55:20;6.33;;;2.30;;
13404;SDS011;6773;51.192;7.024;2022-12-29T17:57:47;5.23;;;1.80;;
13404;SDS011;6773;51.192;7.024;2022-12-29T18:00:13;7.80;;;2.53;;
13404;SDS011;6773;51.192;7.024;2022-12-29T18:02:44;8.57;;;4.03;;
13404;SDS011;6773;51.192;7.024;2022-12-29T18:05:17;5.43;;;2.40;;
13404;SDS011;6773;51.192;7.024;2022-12-29T18:07:45;10.23;;;2.33;;